Ashton, SD

7:54 PM CDT on September 22, 2014 (GMT -0500)
Aberdeen Regional | Change Station
CLOSE
Current Station
Airport
Location: Aberdeen,
Elevation: 1299 ft
Nearby Weather Stations

Elev 1299 ft 45.44 °N, 98.41 °W | Updated 1 hour ago

Partly Cloudy
Partly Cloudy
71 °F
Feels Like 71 °F
N
10
Wind Variable Wind from South

Today
High -- | Low -- °F
--% Chance of Precip.
Yesterday
High -- | Low -- °F
Precip. -- in
7:21 AM 7:31 PM
Waning Crescent, 1% visible
Pressure 30.04 in
Visibility 10.0 miles
Clouds Clear
Dew Point 48 °F
Humidity 44%
Rainfall 0.00 in
Snow Depth 0 in
UV 0 out of 12
Pollen 3.10 out of 12
Air Quality Not available.
Flu Activity Not available.
METAR KABR 222353Z AUTO 17009KT 10SM CLR 22/09 A3004 RMK AO2 SLP173 T02170089 10256 20217 56014

More Conditions Fewer Conditions

Pressure 30.04 in
Visibility 10.0 miles
Clouds Clear
Dew Point 48 °F
Humidity 44%
Rainfall 0.00 in
Snow Depth 0 in
UV 0 out of 12
Pollen 3.10 out of 12
Air Quality Not available.
Flu Activity Not available.
METAR KABR 222353Z AUTO 17009KT 10SM CLR 22/09 A3004 RMK AO2 SLP173 T02170089 10256 20217 56014

More Conditions Fewer Conditions

10-Day Weather Forecast

Almanac

Astronomy

Sep. 22, 2014 Rise Set
Actual Time 7:21 AM CDT 7:31 PM CDT
Civil Twilight 6:51 AM CDT 8:00 PM CDT
Nautical Twilight 6:17 AM CDT 8:35 PM CDT
Astronomical Twilight 5:41 AM CDT 9:10 PM CDT
Moon 5:48 AM CDT (9/22) 6:41 PM CDT (9/22)
Length of Visible Light 13h 08m
Length of Day
12h 10m
Tomorrow will be 3m 7s shorter.
Waning Crescent, 1% of the Moon is Illuminated
Today
Waning Crescent
Sep 24
New
Oct 1
First Quarter
Oct 8
Full
Oct 15
Last Quarter

Today's Extremes

State Highs State Lows

Community

WunderPhotos

Upload Photos

1,755,575 photos uploaded!

Nearby

Snow Depth

Station Depth Elevation
Blind Park 0 in 6890 ft

Earthquake Activity

City Distance Mag. Time & Date
No recent earthquake activity has been reported nearby.
Minimum magnitude displayed is 2.5.

Coastal Water Temperatures

Place Temperature
No Stations Reporting

Nearby Weather Stations